createdAt,value
2023-04-13T00:01:00.202Z,13.40
2023-04-13T00:03:31.022Z,11.73
2023-04-13T00:05:59.058Z,11.73
2023-04-13T00:08:27.195Z,10.67
2023-04-13T00:10:55.608Z,12.37
2023-04-13T00:13:25.567Z,12.23
2023-04-13T00:15:55.951Z,12.27
2023-04-13T00:18:24.033Z,11.43
2023-04-13T00:20:52.015Z,11.40
2023-04-13T00:23:19.943Z,11.97
2023-04-13T00:25:48.968Z,12.80
2023-04-13T00:28:18.998Z,11.90
2023-04-13T00:30:48.349Z,11.40
2023-04-13T00:33:16.603Z,11.90
2023-04-13T00:35:44.967Z,12.27
2023-04-13T00:38:13.860Z,11.67
2023-04-13T00:40:42.741Z,12.93
2023-04-13T00:43:10.956Z,12.93
2023-04-13T00:45:39.596Z,12.00
2023-04-13T00:48:11.666Z,11.43
2023-04-13T00:50:40.759Z,11.47
2023-04-13T00:53:13.202Z,12.40
2023-04-13T00:55:43.228Z,13.30
2023-04-13T00:58:13.283Z,11.70
2023-04-13T01:00:43.324Z,12.10
2023-04-13T01:03:13.554Z,11.43
2023-04-13T01:05:51.783Z,12.07
2023-04-13T01:08:28.651Z,12.20
2023-04-13T01:11:01.591Z,11.93
2023-04-13T01:13:35.910Z,12.20
2023-04-13T01:16:12.157Z,12.30
2023-04-13T01:18:43.605Z,12.80
2023-04-13T01:21:14.404Z,12.77
2023-04-13T01:23:52.747Z,12.60
2023-04-13T01:26:22.855Z,12.50
2023-04-13T01:28:54.337Z,12.97
2023-04-13T01:31:22.742Z,12.73
2023-04-13T01:33:51.506Z,12.27
2023-04-13T01:36:19.901Z,12.83
2023-04-13T01:38:48.400Z,13.63
2023-04-13T01:41:16.361Z,12.60
2023-04-13T01:43:45.341Z,12.80
2023-04-13T01:46:15.435Z,13.73
2023-04-13T01:48:48.283Z,12.63
2023-04-13T01:51:19.335Z,13.10
2023-04-13T01:53:53.612Z,12.97
2023-04-13T01:56:23.174Z,13.93
2023-04-13T01:58:58.104Z,12.77
2023-04-13T02:01:27.828Z,13.47
2023-04-13T02:03:57.114Z,12.60
2023-04-13T02:06:26.000Z,12.80
2023-04-13T02:08:54.820Z,11.50
2023-04-13T02:11:22.789Z,12.40
2023-04-13T02:13:51.277Z,12.37
2023-04-13T02:16:19.306Z,13.33
2023-04-13T02:18:49.257Z,13.17
2023-04-13T02:21:18.038Z,13.60
2023-04-13T02:23:46.059Z,13.07
2023-04-13T02:26:14.773Z,13.30
2023-04-13T02:28:42.949Z,13.77
2023-04-13T02:31:10.933Z,12.60
2023-04-13T02:33:39.903Z,12.27
2023-04-13T02:36:10.610Z,12.33
2023-04-13T02:38:38.832Z,13.07
2023-04-13T02:41:07.919Z,12.17
2023-04-13T02:43:36.120Z,12.80
2023-04-13T02:46:04.460Z,13.40
2023-04-13T02:48:32.662Z,13.73
2023-04-13T02:51:00.959Z,13.17
2023-04-13T02:53:30.458Z,13.53
2023-04-13T02:55:58.386Z,12.83
2023-04-13T02:58:26.827Z,13.07
2023-04-13T03:00:54.960Z,12.87
2023-04-13T03:03:23.131Z,13.93
2023-04-13T03:05:52.350Z,12.80
2023-04-13T03:08:20.321Z,13.00
2023-04-13T03:10:49.740Z,12.77
2023-04-13T03:13:17.732Z,14.30
2023-04-13T03:15:46.654Z,13.50
2023-04-13T03:18:16.206Z,13.90
2023-04-13T03:20:44.289Z,14.27
2023-04-13T03:23:12.229Z,14.43
2023-04-13T03:25:41.028Z,13.80
2023-04-13T03:28:10.354Z,13.50
2023-04-13T03:30:38.567Z,13.47
2023-04-13T03:33:06.590Z,13.63
2023-04-13T03:35:34.554Z,14.47
2023-04-13T03:38:02.646Z,13.40
2023-04-13T03:40:30.651Z,13.43
2023-04-13T03:42:58.655Z,13.83
2023-04-13T03:45:28.048Z,12.80
2023-04-13T03:47:56.202Z,13.47
2023-04-13T03:50:24.341Z,13.63
2023-04-13T03:52:52.339Z,14.40
2023-04-13T03:55:20.395Z,13.07
2023-04-13T03:57:48.826Z,13.23
2023-04-13T04:00:18.338Z,14.33
2023-04-13T04:02:47.888Z,13.63
2023-04-13T04:05:16.414Z,14.07
2023-04-13T04:07:44.640Z,13.20
2023-04-13T04:10:12.760Z,13.97
2023-04-13T04:12:40.764Z,14.50
2023-04-13T04:15:09.807Z,13.50
2023-04-13T04:17:39.935Z,14.30
2023-04-13T04:20:11.146Z,13.13
2023-04-13T04:22:39.557Z,13.60
2023-04-13T04:25:08.976Z,13.30
2023-04-13T04:27:38.249Z,14.47
2023-04-13T04:30:10.818Z,14.07
2023-04-13T04:32:41.854Z,14.20
2023-04-13T04:35:12.823Z,13.73
2023-04-13T04:37:40.930Z,14.03
2023-04-13T04:40:10.601Z,14.27
2023-04-13T04:42:38.669Z,14.27
2023-04-13T04:45:07.627Z,14.73
2023-04-13T04:47:42.199Z,15.50
2023-04-13T04:50:13.126Z,14.00
2023-04-13T04:52:42.269Z,14.47
2023-04-13T04:55:11.324Z,13.80
2023-04-13T04:57:39.254Z,15.03
2023-04-13T05:00:15.025Z,13.57
2023-04-13T05:02:43.198Z,13.13
2023-04-13T05:05:12.892Z,13.63
2023-04-13T05:07:40.884Z,14.57
2023-04-13T05:10:10.248Z,15.50
2023-04-13T05:12:38.307Z,15.30
2023-04-13T05:15:07.775Z,15.43
2023-04-13T05:17:36.471Z,15.67
2023-04-13T05:20:06.763Z,14.43
2023-04-13T05:22:36.319Z,14.47
2023-04-13T05:25:04.730Z,14.40
2023-04-13T05:27:32.853Z,14.90
2023-04-13T05:30:00.792Z,15.10
2023-04-13T05:32:29.023Z,14.63
2023-04-13T05:34:57.031Z,15.20
2023-04-13T05:37:25.080Z,15.47
2023-04-13T05:39:54.657Z,14.83
2023-04-13T05:42:24.020Z,14.43
2023-04-13T05:44:52.107Z,14.03
2023-04-13T05:47:23.070Z,14.87
2023-04-13T05:49:52.073Z,15.07
2023-04-13T05:52:22.004Z,14.07
2023-04-13T05:54:50.611Z,14.20
2023-04-13T05:57:21.012Z,13.57
2023-04-13T05:59:48.981Z,14.77
2023-04-13T06:02:17.000Z,13.40
2023-04-13T06:04:45.573Z,15.13
2023-04-13T06:07:16.489Z,14.37
2023-04-13T06:09:44.540Z,13.77
2023-04-13T06:12:12.825Z,14.07
2023-04-13T06:14:43.025Z,13.87
2023-04-13T06:17:11.204Z,13.30
2023-04-13T06:19:39.196Z,13.37
2023-04-13T06:22:07.558Z,13.87
2023-04-13T06:24:35.553Z,12.83
2023-04-13T06:27:04.514Z,14.27
2023-04-13T06:29:32.844Z,14.20
2023-04-13T06:32:02.269Z,13.53
2023-04-13T06:34:30.343Z,13.20
2023-04-13T06:36:58.472Z,13.33
2023-04-13T06:39:28.787Z,13.30
2023-04-13T06:41:57.663Z,14.07
2023-04-13T06:44:25.917Z,12.63
2023-04-13T06:46:54.188Z,13.20
2023-04-13T06:49:23.659Z,12.53
2023-04-13T06:51:51.705Z,13.50
2023-04-13T06:54:19.741Z,13.60
2023-04-13T06:56:47.861Z,12.07
2023-04-13T06:59:15.952Z,12.90
2023-04-13T07:01:45.901Z,12.33
2023-04-13T07:04:14.095Z,13.07
2023-04-13T07:06:44.099Z,12.70
2023-04-13T07:09:12.114Z,12.33
2023-04-13T07:11:40.097Z,12.07
2023-04-13T07:14:08.058Z,12.07
2023-04-13T07:16:36.072Z,12.27
2023-04-13T07:19:04.175Z,12.23
2023-04-13T07:21:33.590Z,12.33
2023-04-13T07:24:02.998Z,13.17
2023-04-13T07:26:31.020Z,11.37
2023-04-13T07:28:59.271Z,11.60
2023-04-13T07:31:27.790Z,11.70
2023-04-13T07:33:55.993Z,11.33
2023-04-13T07:36:24.100Z,12.00
2023-04-13T07:38:52.665Z,11.13
2023-04-13T07:41:22.819Z,11.93
2023-04-13T07:43:51.198Z,11.07
2023-04-13T07:46:20.535Z,11.73
2023-04-13T07:48:48.730Z,12.07
2023-04-13T07:51:19.614Z,12.50
2023-04-13T07:53:47.802Z,12.03
2023-04-13T07:56:16.786Z,11.63
2023-04-13T07:58:46.274Z,12.70
2023-04-13T08:01:14.234Z,11.07
2023-04-13T08:03:42.675Z,12.03
2023-04-13T08:06:11.952Z,12.00
2023-04-13T08:08:39.923Z,11.90
2023-04-13T08:11:08.706Z,11.17
2023-04-13T08:13:37.235Z,10.63
2023-04-13T08:16:08.570Z,11.00
2023-04-13T08:18:37.386Z,10.90
2023-04-13T08:21:10.966Z,9.53
2023-04-13T08:23:41.267Z,9.93
2023-04-13T08:26:09.528Z,10.00
2023-04-13T08:28:37.675Z,10.73
2023-04-13T08:31:07.646Z,10.13
2023-04-13T08:33:35.626Z,9.37
2023-04-13T08:36:03.774Z,9.80
2023-04-13T08:38:35.688Z,9.47
2023-04-13T08:41:05.198Z,10.30
2023-04-13T08:43:35.544Z,8.07
2023-04-13T08:46:04.467Z,9.23
2023-04-13T08:48:46.380Z,9.87
2023-04-13T08:51:22.611Z,9.47
2023-04-13T08:53:54.804Z,8.70
2023-04-13T08:56:31.056Z,9.43
2023-04-13T08:59:07.015Z,8.37
2023-04-13T09:01:38.675Z,8.17
2023-04-13T09:04:11.004Z,8.90
2023-04-13T09:06:41.461Z,8.53
2023-04-13T09:09:13.486Z,7.93
2023-04-13T09:11:42.206Z,9.20
2023-04-13T09:14:10.252Z,9.23
2023-04-13T09:16:42.392Z,9.43
2023-04-13T09:19:13.875Z,9.43
2023-04-13T09:21:43.107Z,9.63
2023-04-13T09:24:11.673Z,10.00
2023-04-13T09:26:43.496Z,10.13
2023-04-13T09:29:14.911Z,9.37
2023-04-13T09:31:45.165Z,8.53
2023-04-13T09:34:15.896Z,8.87
2023-04-13T09:36:53.960Z,8.23
2023-04-13T09:39:28.165Z,10.60
2023-04-13T09:41:58.310Z,9.77
2023-04-13T09:44:28.853Z,9.37
2023-04-13T09:47:00.410Z,9.60
2023-04-13T09:49:38.531Z,9.03
2023-04-13T09:52:07.561Z,9.27
2023-04-13T09:54:36.062Z,9.00
2023-04-13T09:57:05.083Z,9.30
2023-04-13T09:59:34.122Z,8.80
2023-04-13T10:02:05.829Z,9.97
2023-04-13T10:04:36.842Z,9.67
2023-04-13T10:07:06.725Z,8.80
2023-04-13T10:09:34.994Z,7.37
2023-04-13T10:12:03.451Z,8.27
2023-04-13T10:14:36.935Z,7.87
2023-04-13T10:17:26.914Z,8.43
2023-04-13T10:20:07.804Z,6.23
2023-04-13T10:22:37.576Z,7.37
2023-04-13T10:25:09.583Z,7.30
2023-04-13T10:27:41.358Z,7.93
2023-04-13T10:30:18.083Z,8.13
2023-04-13T10:32:46.551Z,7.57
2023-04-13T10:35:16.985Z,7.80
2023-04-13T10:37:46.629Z,8.53
2023-04-13T10:40:16.314Z,8.03
2023-04-13T10:42:52.457Z,7.90
2023-04-13T10:45:24.184Z,7.10
2023-04-13T10:47:53.103Z,6.93
2023-04-13T10:50:23.991Z,6.40
2023-04-13T10:53:00.334Z,5.80
2023-04-13T10:55:29.122Z,6.13
2023-04-13T10:57:58.377Z,6.20
2023-04-13T11:00:42.388Z,6.63
2023-04-13T11:03:16.449Z,6.00
2023-04-13T11:05:47.527Z,5.90
2023-04-13T11:08:20.732Z,6.37
2023-04-13T11:10:53.269Z,7.70
2023-04-13T11:13:21.672Z,5.17
2023-04-13T11:15:50.634Z,5.30
2023-04-13T11:18:26.507Z,5.13
2023-04-13T11:20:56.139Z,5.70
2023-04-13T11:23:24.861Z,5.73
2023-04-13T11:25:55.112Z,6.87
2023-04-13T11:28:24.493Z,6.10
2023-04-13T11:31:01.574Z,6.97
2023-04-13T11:33:31.366Z,6.67
2023-04-13T11:36:02.261Z,6.50
2023-04-13T11:38:30.948Z,6.23
2023-04-13T11:41:14.975Z,5.93
2023-04-13T11:43:46.401Z,6.10
2023-04-13T11:46:16.221Z,7.23
2023-04-13T11:48:44.632Z,6.73
2023-04-13T11:51:15.293Z,6.73
2023-04-13T11:53:43.400Z,6.97
2023-04-13T11:56:11.768Z,7.50
2023-04-13T11:58:40.534Z,8.07
2023-04-13T12:01:14.531Z,8.00
2023-04-13T12:03:59.261Z,8.13
2023-04-13T12:06:35.651Z,8.07
2023-04-13T12:09:10.953Z,7.73
2023-04-13T12:11:45.833Z,7.60
2023-04-13T12:14:46.846Z,7.77
2023-04-13T12:17:26.244Z,7.93
2023-04-13T12:20:03.855Z,7.23
2023-04-13T12:22:52.626Z,7.80
2023-04-13T12:25:35.544Z,8.00
2023-04-13T12:28:04.890Z,8.57
2023-04-13T12:30:34.353Z,9.03
2023-04-13T12:33:02.481Z,9.10
2023-04-13T12:35:30.612Z,9.53
2023-04-13T12:38:00.353Z,10.00
2023-04-13T12:40:29.083Z,10.33
2023-04-13T12:42:57.148Z,9.63
2023-04-13T12:45:25.160Z,10.00
2023-04-13T12:47:53.169Z,10.73
2023-04-13T12:50:21.201Z,11.00
2023-04-13T12:52:50.032Z,10.13
2023-04-13T12:55:19.730Z,10.47
2023-04-13T12:57:47.689Z,9.77
2023-04-13T13:00:17.414Z,10.40
2023-04-13T13:02:46.012Z,9.60
2023-04-13T13:05:14.224Z,8.00
2023-04-13T13:07:42.270Z,7.87
2023-04-13T13:10:25.814Z,7.53
2023-04-13T13:13:00.648Z,8.30
2023-04-13T13:15:28.653Z,9.10
2023-04-13T13:17:56.886Z,9.83
2023-04-13T13:20:24.933Z,9.57
2023-04-13T13:22:53.036Z,11.67
2023-04-13T13:25:21.308Z,14.83
2023-04-13T13:30:21.891Z,9.90
2023-04-13T13:32:50.145Z,9.17
2023-04-13T13:35:18.245Z,8.33
2023-04-13T13:37:46.272Z,7.93
2023-04-13T13:40:14.628Z,7.37
2023-04-13T13:45:13.807Z,6.67
2023-04-13T13:47:43.177Z,7.93
2023-04-13T13:50:12.375Z,7.90
2023-04-13T13:52:51.606Z,6.83
2023-04-13T13:55:27.755Z,7.37
2023-04-13T13:57:55.714Z,8.47
2023-04-13T14:00:23.949Z,8.27
2023-04-13T14:02:53.460Z,8.50
2023-04-13T14:05:23.537Z,8.37
2023-04-13T14:07:51.777Z,8.10
2023-04-13T14:10:19.969Z,7.93
2023-04-13T14:12:50.457Z,8.37
2023-04-13T14:15:19.240Z,7.93
2023-04-13T14:17:58.707Z,8.30
2023-04-13T14:20:38.916Z,8.23
2023-04-13T14:23:07.223Z,8.27
2023-04-13T14:25:35.403Z,8.33
2023-04-13T14:28:03.632Z,7.83
2023-04-13T14:30:31.724Z,7.23
2023-04-13T14:32:59.843Z,8.20
2023-04-13T14:35:27.969Z,7.97
2023-04-13T14:37:57.536Z,8.00
2023-04-13T14:40:25.555Z,8.90
2023-04-13T14:42:53.796Z,8.43
2023-04-13T14:45:22.213Z,7.47
2023-04-13T14:47:50.596Z,8.47
2023-04-13T14:50:18.868Z,7.83
2023-04-13T14:52:47.716Z,8.07
2023-04-13T14:55:18.339Z,7.90
2023-04-13T14:57:47.275Z,7.83
2023-04-13T15:00:21.833Z,8.10
2023-04-13T15:02:51.018Z,8.53
2023-04-13T15:05:19.906Z,7.70
2023-04-13T15:07:48.504Z,8.17
2023-04-13T15:10:19.081Z,7.83
2023-04-13T15:12:48.250Z,8.70
2023-04-13T15:15:16.637Z,7.77
2023-04-13T15:17:44.847Z,7.43
2023-04-13T15:20:13.046Z,6.70
2023-04-13T15:22:41.089Z,6.80
2023-04-13T15:25:09.606Z,8.70
2023-04-13T15:27:39.001Z,5.67
2023-04-13T15:30:10.079Z,5.30
2023-04-13T15:32:38.176Z,5.67
2023-04-13T15:35:06.698Z,6.03
2023-04-13T15:37:34.755Z,6.93
2023-04-13T15:40:05.537Z,5.87
2023-04-13T15:42:33.587Z,6.60
2023-04-13T15:45:03.648Z,9.17
2023-04-13T15:47:31.795Z,8.10
2023-04-13T15:49:59.853Z,5.97
2023-04-13T15:52:27.976Z,6.20
2023-04-13T15:54:56.324Z,5.90
2023-04-13T15:57:24.382Z,6.33
2023-04-13T15:59:52.418Z,5.57
2023-04-13T16:02:22.078Z,5.83
2023-04-13T16:04:50.339Z,6.87
2023-04-13T16:07:20.013Z,6.63
2023-04-13T16:09:51.265Z,7.53
2023-04-13T16:12:20.277Z,9.87
2023-04-13T16:14:48.311Z,9.37
2023-04-13T16:17:16.646Z,10.40
2023-04-13T16:19:47.386Z,12.87
2023-04-13T16:22:16.396Z,10.27
2023-04-13T16:24:44.373Z,10.63
2023-04-13T16:27:12.566Z,10.40
2023-04-13T16:29:41.661Z,9.50
2023-04-13T16:32:09.639Z,8.40
2023-04-13T16:34:37.807Z,8.67
2023-04-13T16:37:07.489Z,9.60
2023-04-13T16:39:35.609Z,9.30
2023-04-13T16:42:04.230Z,11.03
2023-04-13T16:44:33.280Z,13.13
2023-04-13T16:47:01.449Z,15.63
2023-04-13T16:49:29.746Z,13.43
2023-04-13T16:51:57.823Z,14.90
2023-04-13T16:54:27.287Z,13.03
2023-04-13T16:56:55.675Z,12.50
2023-04-13T16:59:23.833Z,9.97
2023-04-13T17:01:52.079Z,13.43
2023-04-13T17:04:20.144Z,13.83
2023-04-13T17:06:48.395Z,13.57
2023-04-13T17:09:17.597Z,14.83
2023-04-13T17:11:46.918Z,16.13
2023-04-13T17:14:14.886Z,13.47
2023-04-13T17:16:42.933Z,14.83
2023-04-13T17:19:11.088Z,14.60
2023-04-13T17:21:39.391Z,13.30
2023-04-13T17:24:09.115Z,12.67
2023-04-13T17:26:37.091Z,14.07
2023-04-13T17:29:06.561Z,11.70
2023-04-13T17:31:34.559Z,13.17
2023-04-13T17:34:02.597Z,13.10
2023-04-13T17:36:31.353Z,11.70
2023-04-13T17:38:59.723Z,13.97
2023-04-13T17:41:27.837Z,13.47
2023-04-13T17:43:55.771Z,10.90
2023-04-13T17:46:25.197Z,12.67
2023-04-13T17:48:53.351Z,9.13
2023-04-13T17:51:21.352Z,11.10
2023-04-13T17:53:49.308Z,11.50
2023-04-13T17:56:18.398Z,8.33
2023-04-13T17:58:46.649Z,7.10
2023-04-13T18:01:14.765Z,6.27
2023-04-13T18:03:44.866Z,6.43
2023-04-13T18:06:13.574Z,6.67
2023-04-13T18:08:41.490Z,6.53
2023-04-13T18:11:09.446Z,6.90
2023-04-13T18:13:37.523Z,7.03
2023-04-13T18:16:05.906Z,7.60
2023-04-13T18:18:33.879Z,7.33
2023-04-13T18:21:03.276Z,9.00
2023-04-13T18:23:31.452Z,8.37
2023-04-13T18:25:59.371Z,7.63
2023-04-13T18:28:27.381Z,7.27
2023-04-13T18:31:00.508Z,8.13
2023-04-13T18:33:29.353Z,8.20
2023-04-13T18:35:57.630Z,8.37
2023-04-13T18:38:26.992Z,7.53
2023-04-13T18:40:55.083Z,10.57
2023-04-13T18:43:23.743Z,9.50
2023-04-13T18:45:51.743Z,9.73
2023-04-13T18:48:19.693Z,8.63
2023-04-13T18:50:48.378Z,11.20
2023-04-13T18:53:16.372Z,11.30
2023-04-13T18:55:51.085Z,12.83
2023-04-13T18:58:20.051Z,15.90
2023-04-13T19:00:48.096Z,14.67
2023-04-13T19:03:16.291Z,15.43
2023-04-13T19:05:44.332Z,14.83
2023-04-13T19:08:13.668Z,15.57
2023-04-13T19:10:42.947Z,14.87
2023-04-13T19:13:14.260Z,16.67
2023-04-13T19:15:42.317Z,18.27
2023-04-13T19:18:11.403Z,16.67
2023-04-13T19:20:39.459Z,16.20
2023-04-13T19:23:07.845Z,18.50
2023-04-13T19:25:36.125Z,17.03
2023-04-13T19:28:04.238Z,17.43
2023-04-13T19:30:33.896Z,15.43
2023-04-13T19:33:02.079Z,15.63
2023-04-13T19:35:30.236Z,16.13
2023-04-13T19:37:58.449Z,14.10
2023-04-13T19:40:27.468Z,15.83
2023-04-13T19:42:55.566Z,13.60
2023-04-13T19:45:23.721Z,12.93
2023-04-13T19:47:53.224Z,15.60
2023-04-13T19:50:22.410Z,15.37
2023-04-13T19:52:52.231Z,14.37
2023-04-13T19:55:20.631Z,11.10
2023-04-13T19:57:48.629Z,11.93
2023-04-13T20:00:20.458Z,12.97
2023-04-13T20:02:50.827Z,10.00
2023-04-13T20:05:21.311Z,10.13
2023-04-13T20:07:49.661Z,8.80
2023-04-13T20:10:17.775Z,9.73
2023-04-13T20:12:45.703Z,10.50
2023-04-13T20:15:13.710Z,9.97
2023-04-13T20:17:41.886Z,9.30
2023-04-13T20:20:11.093Z,11.13
2023-04-13T20:22:40.594Z,13.97
2023-04-13T20:25:10.072Z,18.40
2023-04-13T20:27:42.121Z,22.47
2023-04-13T20:30:11.735Z,17.87
2023-04-13T20:32:39.893Z,17.13
2023-04-13T20:35:09.606Z,15.03
2023-04-13T20:37:37.806Z,12.13
2023-04-13T20:40:11.208Z,11.57
2023-04-13T20:42:41.883Z,10.50
2023-04-13T20:45:12.640Z,11.27
2023-04-13T20:47:42.354Z,10.30
2023-04-13T20:50:11.362Z,11.03
2023-04-13T20:52:41.769Z,9.53
2023-04-13T20:55:11.912Z,10.50
2023-04-13T20:57:42.184Z,10.00
2023-04-13T21:00:15.763Z,10.20
2023-04-13T21:02:44.546Z,11.07
2023-04-13T21:05:12.763Z,10.97
2023-04-13T21:07:42.004Z,10.63
2023-04-13T21:10:12.311Z,12.20
2023-04-13T21:12:40.347Z,12.10
2023-04-13T21:15:09.970Z,12.57
2023-04-13T21:17:38.087Z,12.80
2023-04-13T21:20:08.966Z,11.80
2023-04-13T21:22:37.142Z,13.73
2023-04-13T21:25:06.287Z,13.53
2023-04-13T21:27:35.724Z,13.67
2023-04-13T21:30:03.712Z,12.40
2023-04-13T21:32:32.086Z,12.47
2023-04-13T21:35:00.639Z,12.90
2023-04-13T21:37:29.621Z,13.07
2023-04-13T21:39:57.809Z,11.57
2023-04-13T21:42:25.828Z,10.47
2023-04-13T21:44:56.391Z,11.87
2023-04-13T21:47:24.476Z,11.53
2023-04-13T21:49:52.564Z,10.83
2023-04-13T21:52:20.607Z,11.63
2023-04-13T21:54:50.369Z,14.23
2023-04-13T21:57:19.568Z,13.30
2023-04-13T21:59:47.977Z,14.67
2023-04-13T22:02:17.381Z,14.67
2023-04-13T22:04:45.839Z,15.23
2023-04-13T22:07:13.859Z,14.27
2023-04-13T22:09:41.910Z,15.83
2023-04-13T22:12:10.938Z,12.50
2023-04-13T22:14:38.966Z,16.20
2023-04-13T22:17:07.305Z,14.37
2023-04-13T22:19:36.850Z,17.63
2023-04-13T22:22:05.009Z,16.17
2023-04-13T22:24:32.974Z,16.03
2023-04-13T22:27:03.469Z,17.90
2023-04-13T22:29:31.590Z,17.33
2023-04-13T22:32:00.128Z,18.93
2023-04-13T22:34:28.579Z,17.90
2023-04-13T22:36:57.918Z,17.73
2023-04-13T22:39:25.863Z,18.43
2023-04-13T22:41:53.884Z,16.80
2023-04-13T22:44:21.871Z,16.77
2023-04-13T22:46:50.046Z,17.77
2023-04-13T22:49:18.071Z,18.03
2023-04-13T22:51:46.890Z,18.57
2023-04-13T22:54:16.706Z,18.57
2023-04-13T22:56:44.861Z,17.80
2023-04-13T22:59:13.138Z,16.90
2023-04-13T23:01:41.134Z,17.33
2023-04-13T23:04:09.457Z,17.20
2023-04-13T23:06:37.618Z,18.40
2023-04-13T23:09:05.732Z,18.07
2023-04-13T23:11:35.172Z,16.37
2023-04-13T23:14:03.266Z,17.00
2023-04-13T23:16:31.352Z,17.97
2023-04-13T23:18:59.689Z,18.20
2023-04-13T23:21:28.953Z,19.03
2023-04-13T23:23:57.130Z,17.73
2023-04-13T23:26:25.161Z,18.03
2023-04-13T23:28:54.629Z,19.63
2023-04-13T23:31:22.790Z,18.07
2023-04-13T23:33:51.320Z,17.77
2023-04-13T23:36:20.097Z,18.57
2023-04-13T23:38:48.065Z,17.53
2023-04-13T23:41:16.381Z,17.23
2023-04-13T23:43:44.549Z,18.33
2023-04-13T23:46:14.188Z,17.40
2023-04-13T23:48:42.329Z,18.77
2023-04-13T23:51:10.289Z,20.33
2023-04-13T23:53:38.378Z,18.63
2023-04-13T23:56:07.269Z,19.33
2023-04-13T23:58:35.509Z,18.00
